Time;durP1;ratioP1;P1;durP2;ratioP2;P2;SDS_P1;SDS_P2;PMS_P1;PMS_P2;Temp;Humidity;BMP_temperature;BMP_pressure;BME280_temperature;BME280_humidity;BME280_pressure;Samples;Min_cycle;Max_cycle;Signal;HPM_P1;HPM_P2
2023/05/16 07:12:37;;;;;;;26.92;7.55;;;;;;;;;;2488028;23;20027;31
2023/05/16 09:48:01;;;;;;;18.10;6.25;;;;;;;;;;2531855;23;20045;-79
2023/05/16 10:34:35;;;;;;;10.10;4.05;;;;;;;;;;2518108;23;20003;-77
2023/05/16 10:35:56;;;;;;;10.27;4.28;;;;;;;;;;2519081;23;20007;-76
2023/05/16 10:37:17;;;;;;;7.70;4.05;;;;;;;;;;2520353;23;20459;-76
2023/05/16 10:38:41;;;;;;;7.93;3.90;;;;;;;;;;2519248;23;20014;-77
2023/05/16 11:10:23;;;;;;;17.95;5.93;;;;;;;;;;2518843;23;20018;-77
2023/05/16 11:11:45;;;;;;;5.43;3.45;;;;;;;;;;2519688;23;20010;-76
2023/05/16 11:13:09;;;;;;;5.95;3.30;;;;;;;;;;2512270;23;20014;-77
2023/05/16 11:14:36;;;;;;;18.83;5.07;;;;;;;;;;2507011;23;20007;-78
2023/05/16 11:16:21;;;;;;;7.30;3.85;;;;;;;;;;2506741;23;20026;-79
2023/05/16 11:24:30;;;;;;;12.18;4.15;;;;;;;;;;2492629;23;20011;-78
2023/05/16 12:22:26;;;;;;;19.10;5.57;;;;;;;;;;2450070;24;20024;-78
2023/05/16 15:56:53;;;;;;;15.05;4.97;;;;;;;;;;2453575;24;20048;-74
2023/05/16 15:58:14;;;;;;;13.00;5.47;;;;;;;;;;2481385;23;20024;-74
2023/05/16 15:59:35;;;;;;;17.70;5.75;;;;;;;;;;2481870;23;20012;-74
2023/05/16 16:00:56;;;;;;;12.27;4.93;;;;;;;;;;2516724;23;20014;-74
2023/05/16 16:02:16;;;;;;;13.98;5.18;;;;;;;;;;2519313;23;20010;-74
2023/05/16 16:03:37;;;;;;;18.05;5.57;;;;;;;;;;2519180;23;20017;-73
2023/05/16 16:04:58;;;;;;;11.65;4.35;;;;;;;;;;2520637;23;20325;-74
2023/05/16 16:06:19;;;;;;;15.00;5.57;;;;;;;;;;2520589;23;20010;-73
2023/05/16 16:07:40;;;;;;;9.93;4.13;;;;;;;;;;2520188;23;20030;-75
2023/05/16 16:09:01;;;;;;;11.65;3.75;;;;;;;;;;2518641;23;20069;-74
2023/05/16 16:10:25;;;;;;;16.55;5.32;;;;;;;;;;2518210;23;20014;-74
2023/05/16 16:11:46;;;;;;;16.02;5.07;;;;;;;;;;2518405;23;20021;-75
2023/05/16 16:13:07;;;;;;;12.73;4.57;;;;;;;;;;2506296;23;20022;-74
2023/05/16 16:14:28;;;;;;;12.35;4.22;;;;;;;;;;2515308;23;20033;-74
2023/05/16 16:15:49;;;;;;;9.43;3.60;;;;;;;;;;2509667;23;20006;-74
2023/05/16 16:17:10;;;;;;;7.78;3.83;;;;;;;;;;2517127;23;20010;-74
2023/05/16 16:18:31;;;;;;;7.82;3.63;;;;;;;;;;2532841;23;20006;-73
2023/05/16 16:19:52;;;;;;;10.35;3.95;;;;;;;;;;2532042;23;20014;-73
2023/05/16 16:21:13;;;;;;;8.65;4.22;;;;;;;;;;2531527;23;20352;-74
2023/05/16 16:22:34;;;;;;;9.23;4.28;;;;;;;;;;2530918;23;20036;-74
2023/05/16 16:23:55;;;;;;;9.00;3.80;;;;;;;;;;2529177;23;20009;-74
2023/05/16 16:25:16;;;;;;;9.75;3.58;;;;;;;;;;2519086;23;20010;-73
2023/05/16 16:26:37;;;;;;;12.10;5.05;;;;;;;;;;2529013;23;20013;-73
2023/05/16 16:27:58;;;;;;;9.32;3.97;;;;;;;;;;2532744;23;20010;-74
2023/05/16 16:29:19;;;;;;;6.43;3.20;;;;;;;;;;2532372;23;20006;-74
2023/05/16 16:30:42;;;;;;;8.15;3.95;;;;;;;;;;2530937;23;20010;-74
2023/05/16 16:32:03;;;;;;;7.38;3.75;;;;;;;;;;2520472;23;20093;-73
2023/05/16 16:33:24;;;;;;;4.35;3.30;;;;;;;;;;2529131;23;20014;-74
2023/05/16 16:34:45;;;;;;;6.05;3.75;;;;;;;;;;2519757;23;20022;-73
2023/05/16 16:36:06;;;;;;;9.10;4.13;;;;;;;;;;2526961;23;20014;-74
2023/05/16 16:37:27;;;;;;;7.97;3.65;;;;;;;;;;2532962;23;20022;-74
2023/05/16 16:38:48;;;;;;;9.85;3.85;;;;;;;;;;2532880;23;20016;-74
2023/05/16 16:40:09;;;;;;;10.10;3.78;;;;;;;;;;2531373;23;20073;-74
2023/05/16 16:41:30;;;;;;;6.65;3.22;;;;;;;;;;2520387;23;20033;-74
2023/05/16 16:42:51;;;;;;;8.77;3.63;;;;;;;;;;2527976;23;20013;-74
2023/05/16 16:44:12;;;;;;;10.18;4.25;;;;;;;;;;2532387;23;20065;-74
2023/05/16 16:45:32;;;;;;;8.98;3.78;;;;;;;;;;2531512;23;20376;-73
2023/05/16 16:46:53;;;;;;;9.63;3.40;;;;;;;;;;2531244;23;20017;-73
2023/05/16 16:48:15;;;;;;;6.68;3.70;;;;;;;;;;2531027;23;20018;-74
2023/05/16 16:49:36;;;;;;;13.27;4.97;;;;;;;;;;2518533;23;20014;-74
2023/05/16 16:50:56;;;;;;;8.70;3.30;;;;;;;;;;2529185;23;20014;-73
2023/05/16 16:52:17;;;;;;;10.82;3.35;;;;;;;;;;2531720;23;20440;-74
2023/05/16 16:53:39;;;;;;;9.68;3.67;;;;;;;;;;2532571;23;20020;-74
2023/05/16 16:55:00;;;;;;;7.50;2.95;;;;;;;;;;2533304;23;20010;-74
2023/05/16 16:56:21;;;;;;;9.90;3.85;;;;;;;;;;2518773;23;20018;-74
2023/05/16 16:57:42;;;;;;;8.45;3.33;;;;;;;;;;2529263;23;20025;-73
2023/05/16 16:59:03;;;;;;;6.60;3.40;;;;;;;;;;2530785;23;20010;-74
2023/05/16 17:00:25;;;;;;;8.63;3.83;;;;;;;;;;2531232;23;20463;-74
2023/05/16 17:01:46;;;;;;;11.57;3.65;;;;;;;;;;2520322;23;20472;-74
2023/05/16 17:03:07;;;;;;;8.82;3.40;;;;;;;;;;2526734;23;20036;-74
2023/05/16 17:04:28;;;;;;;5.47;3.20;;;;;;;;;;2518266;23;20017;-74
2023/05/16 17:05:49;;;;;;;13.10;4.97;;;;;;;;;;2529188;23;20001;-74
2023/05/16 17:07:10;;;;;;;11.50;4.63;;;;;;;;;;2519985;23;20853;-74
2023/05/16 17:08:31;;;;;;;10.18;4.53;;;;;;;;;;2514044;23;20018;-74
2023/05/16 17:09:53;;;;;;;7.35;3.25;;;;;;;;;;2528454;23;20006;-74
2023/05/16 17:11:21;;;;;;;5.85;3.63;;;;;;;;;;2533945;23;20009;-73
2023/05/16 17:12:47;;;;;;;5.60;3.30;;;;;;;;;;2520684;23;20097;-73
2023/05/16 17:14:13;;;;;;;10.40;4.15;;;;;;;;;;2517095;23;20014;-74
2023/05/16 17:15:34;;;;;;;8.55;4.97;;;;;;;;;;2528482;23;20006;-74
2023/05/16 17:16:55;;;;;;;11.48;4.03;;;;;;;;;;2532110;23;20006;-73
2023/05/16 17:18:16;;;;;;;16.75;5.40;;;;;;;;;;2521412;23;20398;-72
2023/05/16 17:19:37;;;;;;;7.93;3.85;;;;;;;;;;2506041;23;20010;-74
2023/05/16 17:20:58;;;;;;;19.85;6.10;;;;;;;;;;2515018;23;20392;-75
2023/05/16 17:22:20;;;;;;;11.52;4.57;;;;;;;;;;2531927;23;20021;-73
2023/05/16 17:23:41;;;;;;;12.15;5.57;;;;;;;;;;2530220;23;20348;-74
2023/05/16 17:25:02;;;;;;;15.60;5.80;;;;;;;;;;2531450;23;20017;-74
2023/05/16 17:26:23;;;;;;;7.65;3.90;;;;;;;;;;2531467;23;20432;-74
2023/05/16 17:27:44;;;;;;;9.75;4.20;;;;;;;;;;2529960;23;20025;-74
2023/05/16 17:29:05;;;;;;;7.97;3.50;;;;;;;;;;2532284;23;20076;-74
2023/05/16 17:30:26;;;;;;;6.88;3.78;;;;;;;;;;2531602;23;20380;-74
2023/05/16 17:31:47;;;;;;;4.00;3.30;;;;;;;;;;2533213;23;20018;-76
2023/05/16 17:33:08;;;;;;;11.05;4.38;;;;;;;;;;2531474;23;20010;-76
2023/05/16 17:34:29;;;;;;;8.00;3.90;;;;;;;;;;2519080;23;20110;-75
2023/05/16 17:35:51;;;;;;;13.38;5.13;;;;;;;;;;2526436;23;20014;-75
2023/05/16 17:37:11;;;;;;;5.53;3.67;;;;;;;;;;2531822;23;20025;-76
2023/05/16 17:38:33;;;;;;;9.05;4.70;;;;;;;;;;2531178;23;20018;-75
2023/05/16 17:39:54;;;;;;;7.27;4.17;;;;;;;;;;2530170;23;20452;-76
2023/05/16 17:41:15;;;;;;;10.55;4.65;;;;;;;;;;2519406;23;20385;-75
2023/05/16 17:42:36;;;;;;;9.18;4.15;;;;;;;;;;2527571;23;20006;-75
2023/05/16 17:43:57;;;;;;;15.13;5.20;;;;;;;;;;2531415;23;20021;-75
2023/05/16 17:45:18;;;;;;;13.35;5.10;;;;;;;;;;2530105;23;20010;-76
2023/05/16 17:46:39;;;;;;;9.10;4.10;;;;;;;;;;2529968;23;20041;-76
2023/05/16 17:48:00;;;;;;;8.85;3.85;;;;;;;;;;2530461;23;20021;-75
2023/05/16 17:49:23;;;;;;;9.63;4.72;;;;;;;;;;2531995;23;20031;-75
2023/05/16 17:50:44;;;;;;;7.70;3.80;;;;;;;;;;2533360;23;20014;-76
2023/05/16 17:52:05;;;;;;;16.73;6.03;;;;;;;;;;2520351;23;20114;-75
2023/05/16 17:53:28;;;;;;;10.02;5.40;;;;;;;;;;2528247;23;20014;-76
2023/05/16 17:54:49;;;;;;;12.32;5.35;;;;;;;;;;2531559;23;20014;-75
2023/05/16 17:56:10;;;;;;;7.07;4.57;;;;;;;;;;2533738;23;20021;-75
2023/05/16 17:57:30;;;;;;;9.43;3.80;;;;;;;;;;2531617;23;20017;-76
2023/05/16 17:58:52;;;;;;;7.70;3.90;;;;;;;;;;2522355;23;20014;-75
2023/05/16 18:00:14;;;;;;;10.70;4.80;;;;;;;;;;2521962;23;20014;-75
2023/05/16 18:01:35;;;;;;;7.20;3.97;;;;;;;;;;2520826;23;20018;-74
2023/05/16 18:02:55;;;;;;;6.32;4.47;;;;;;;;;;2520993;23;20006;-76
2023/05/16 18:04:18;;;;;;;6.10;4.07;;;;;;;;;;2508757;23;20018;-75
2023/05/16 18:05:39;;;;;;;11.90;4.70;;;;;;;;;;2518158;23;20015;-76
2023/05/16 18:07:00;;;;;;;7.63;4.25;;;;;;;;;;2521123;23;20006;-77
2023/05/16 18:08:21;;;;;;;16.95;5.90;;;;;;;;;;2506997;23;20023;-76
2023/05/16 18:09:45;;;;;;;9.40;4.43;;;;;;;;;;2515420;23;20017;-76
2023/05/16 18:11:06;;;;;;;9.85;4.28;;;;;;;;;;2521081;23;20456;-76
2023/05/16 18:12:26;;;;;;;7.72;4.10;;;;;;;;;;2509160;23;20025;-76
2023/05/16 18:13:48;;;;;;;5.70;4.13;;;;;;;;;;2517044;23;20010;-76
2023/05/16 18:15:12;;;;;;;5.25;4.28;;;;;;;;;;2509666;23;20014;-76
2023/05/16 18:16:33;;;;;;;6.60;4.45;;;;;;;;;;2518143;23;20018;-76
2023/05/16 18:17:53;;;;;;;11.68;5.25;;;;;;;;;;2521764;23;20085;-75
2023/05/16 18:19:15;;;;;;;14.73;5.65;;;;;;;;;;2533652;23;20021;-76
2023/05/16 18:20:36;;;;;;;7.40;3.97;;;;;;;;;;2532169;23;20010;-76
2023/05/16 18:21:58;;;;;;;11.50;4.37;;;;;;;;;;2531373;23;20014;-76
2023/05/16 18:23:20;;;;;;;12.38;4.80;;;;;;;;;;2531774;23;20381;-76
2023/05/16 18:24:41;;;;;;;11.25;5.45;;;;;;;;;;2531257;23;20006;-76
2023/05/16 18:26:02;;;;;;;10.07;5.38;;;;;;;;;;2532328;23;20338;-75
2023/05/16 18:27:23;;;;;;;13.90;5.90;;;;;;;;;;2531357;23;20340;-76
2023/05/16 18:28:44;;;;;;;13.07;5.25;;;;;;;;;;2531950;23;20014;-76
2023/05/16 18:30:05;;;;;;;8.60;4.55;;;;;;;;;;2520361;23;20022;-76
2023/05/16 18:31:26;;;;;;;12.13;4.43;;;;;;;;;;2529634;23;20428;-76
2023/05/16 18:32:47;;;;;;;13.75;4.90;;;;;;;;;;2533378;23;20010;-76
2023/05/16 18:34:08;;;;;;;8.38;4.60;;;;;;;;;;2534950;23;20013;-76
2023/05/16 18:35:29;;;;;;;8.95;8.15;;;;;;;;;;2535392;23;20006;-76
2023/05/16 18:36:50;;;;;;;9.20;5.88;;;;;;;;;;2534207;23;20010;-76
2023/05/16 18:38:12;;;;;;;11.45;6.75;;;;;;;;;;2521692;23;20014;-76
2023/05/16 18:39:33;;;;;;;10.10;6.43;;;;;;;;;;2530272;23;20017;-76
2023/05/16 18:40:54;;;;;;;12.70;7.38;;;;;;;;;;2533307;23;20014;-74
2023/05/16 18:42:18;;;;;;;12.13;7.05;;;;;;;;;;2536116;23;20061;-74
2023/05/16 18:43:39;;;;;;;9.25;6.78;;;;;;;;;;2524941;23;20010;-75
2023/05/16 18:45:00;;;;;;;7.45;5.70;;;;;;;;;;2530936;23;20444;-75
2023/05/16 18:46:21;;;;;;;13.07;6.22;;;;;;;;;;2534831;23;20344;-74
2023/05/16 18:47:41;;;;;;;8.48;6.07;;;;;;;;;;2522686;23;20094;-76
2023/05/16 18:49:02;;;;;;;16.80;8.02;;;;;;;;;;2527237;23;20014;-76
2023/05/16 18:50:23;;;;;;;12.48;7.70;;;;;;;;;;2527786;23;20021;-76
2023/05/16 18:51:44;;;;;;;9.88;7.22;;;;;;;;;;2524227;23;20011;-76
2023/05/16 18:53:05;;;;;;;6.68;5.80;;;;;;;;;;2522188;23;20007;-76
2023/05/16 18:54:26;;;;;;;8.20;6.85;;;;;;;;;;2523061;23;20018;-75
2023/05/16 18:55:47;;;;;;;7.57;6.97;;;;;;;;;;2512130;23;20071;-76
2023/05/16 18:57:08;;;;;;;8.90;8.07;;;;;;;;;;2529472;23;20345;-75
2023/05/16 18:58:29;;;;;;;9.13;6.60;;;;;;;;;;2526970;23;20018;-76
2023/05/16 18:59:51;;;;;;;12.80;8.73;;;;;;;;;;2512859;23;20007;-75
2023/05/16 19:01:12;;;;;;;10.30;6.47;;;;;;;;;;2519896;23;20425;-76
2023/05/16 19:02:32;;;;;;;9.90;7.20;;;;;;;;;;2525753;23;20385;-75
2023/05/16 19:03:53;;;;;;;11.40;7.72;;;;;;;;;;2523749;23;20014;-75
2023/05/16 19:05:15;;;;;;;21.35;9.13;;;;;;;;;;2521606;23;20442;-75
2023/05/16 19:06:36;;;;;;;11.63;6.97;;;;;;;;;;2508770;23;20018;-75
2023/05/16 19:07:57;;;;;;;14.48;8.93;;;;;;;;;;2518656;23;20011;-75
2023/05/16 19:09:18;;;;;;;15.27;9.23;;;;;;;;;;2509096;23;20015;-75
2023/05/16 19:10:40;;;;;;;13.65;7.82;;;;;;;;;;2508224;23;20010;-74
2023/05/16 19:12:01;;;;;;;;;;;;;;;;;;2514969;23;20110;-75
2023/05/16 19:13:21;;;;;;;16.27;7.03;;;;;;;;;;2519566;23;20007;-75
2023/05/16 19:14:42;;;;;;;18.40;9.35;;;;;;;;;;2512550;23;20023;-75
2023/05/16 19:16:03;;;;;;;15.57;8.60;;;;;;;;;;2507200;23;20140;-74
2023/05/16 19:17:24;;;;;;;18.38;10.05;;;;;;;;;;2517297;23;20015;-75
2023/05/16 19:18:45;;;;;;;14.05;8.43;;;;;;;;;;2515021;23;20029;-75
2023/05/16 19:20:08;;;;;;;15.68;7.82;;;;;;;;;;2532559;23;20528;-74
2023/05/16 19:21:28;;;;;;;18.17;7.80;;;;;;;;;;2509728;23;20015;-75
2023/05/16 19:22:50;;;;;;;15.98;7.65;;;;;;;;;;2527768;23;20020;-74
2023/05/16 19:24:11;;;;;;;18.00;8.10;;;;;;;;;;2522332;23;20021;-75
2023/05/16 19:25:32;;;;;;;20.45;11.20;;;;;;;;;;2521242;23;20013;-75
2023/05/16 19:26:53;;;;;;;18.50;7.97;;;;;;;;;;2521110;23;20449;-75
2023/05/16 19:28:14;;;;;;;16.15;9.35;;;;;;;;;;2521526;23;20029;-75
2023/05/16 19:29:35;;;;;;;11.05;7.47;;;;;;;;;;2508578;23;20051;-75
2023/05/16 19:30:56;;;;;;;14.85;8.07;;;;;;;;;;2515232;23;20022;-75
2023/05/16 19:32:17;;;;;;;14.93;7.50;;;;;;;;;;2522406;23;20074;-75
2023/05/16 19:33:38;;;;;;;13.85;7.35;;;;;;;;;;2522366;23;20893;-75
2023/05/16 19:35:00;;;;;;;13.15;7.72;;;;;;;;;;2511143;23;20388;-75
2023/05/16 19:36:23;;;;;;;17.85;8.77;;;;;;;;;;2519802;23;20022;-75
2023/05/16 19:37:44;;;;;;;11.93;7.82;;;;;;;;;;2508323;23;20019;-75
2023/05/16 19:39:05;;;;;;;24.48;8.43;;;;;;;;;;2505205;23;20011;-74
2023/05/16 19:40:25;;;;;;;17.10;6.88;;;;;;;;;;2515781;23;20333;-75
2023/05/16 19:41:46;;;;;;;13.48;8.40;;;;;;;;;;2525096;23;20010;-74
2023/05/16 19:43:07;;;;;;;12.45;7.18;;;;;;;;;;2522143;23;20015;-74
2023/05/16 19:44:28;;;;;;;14.35;8.13;;;;;;;;;;2511704;23;20007;-75
2023/05/16 19:45:49;;;;;;;19.75;7.05;;;;;;;;;;2518846;23;20180;-75
2023/05/16 19:47:10;;;;;;;17.08;9.95;;;;;;;;;;2509409;23;20483;-75
2023/05/16 19:48:31;;;;;;;16.15;9.65;;;;;;;;;;2518598;23;20023;-74
2023/05/16 19:49:53;;;;;;;26.35;10.00;;;;;;;;;;2520225;23;20018;-74
2023/05/16 19:51:14;;;;;;;16.83;8.02;;;;;;;;;;2522126;23;20433;-75
2023/05/16 19:52:35;;;;;;;19.25;8.40;;;;;;;;;;2520077;23;20060;-75
2023/05/16 19:53:56;;;;;;;14.60;9.02;;;;;;;;;;2522132;23;20018;-75
2023/05/16 19:55:17;;;;;;;13.63;6.40;;;;;;;;;;2520841;23;20074;-75
2023/05/16 19:56:38;;;;;;;11.20;8.30;;;;;;;;;;2523980;23;20396;-75
2023/05/16 19:57:59;;;;;;;15.70;6.25;;;;;;;;;;2506172;23;20026;-74
2023/05/16 19:59:21;;;;;;;16.92;6.65;;;;;;;;;;2516062;23;20471;-75
2023/05/16 20:00:42;;;;;;;10.68;5.55;;;;;;;;;;2520187;23;20014;-74
2023/05/16 20:02:04;;;;;;;19.73;6.80;;;;;;;;;;2509736;23;20010;-75
2023/05/16 20:03:25;;;;;;;27.92;8.93;;;;;;;;;;2512564;23;20011;-74
2023/05/16 20:04:46;;;;;;;11.60;6.07;;;;;;;;;;2519367;23;20019;-76
2023/05/16 20:06:07;;;;;;;22.27;7.80;;;;;;;;;;2519811;23;20025;-77
2023/05/16 20:07:27;;;;;;;25.50;8.55;;;;;;;;;;2504106;23;20121;-76
2023/05/16 20:08:48;;;;;;;19.75;6.72;;;;;;;;;;2515687;23;20428;-73
2023/05/16 20:10:09;;;;;;;31.88;9.05;;;;;;;;;;2518592;23;20073;-75
2023/05/16 20:11:30;;;;;;;14.77;5.82;;;;;;;;;;2520783;23;20018;-74
2023/05/16 20:12:51;;;;;;;13.75;6.60;;;;;;;;;;2519166;23;20011;-76
2023/05/16 20:14:12;;;;;;;33.38;10.48;;;;;;;;;;2504032;23;20015;-76
2023/05/16 20:15:33;;;;;;;30.38;9.15;;;;;;;;;;2510903;23;20352;-76
2023/05/16 20:16:54;;;;;;;22.45;8.43;;;;;;;;;;2515162;23;20015;-76
2023/05/16 20:18:15;;;;;;;29.35;9.50;;;;;;;;;;2516338;23;20018;-76
2023/05/16 20:19:36;;;;;;;43.05;11.52;;;;;;;;;;2516039;23;20031;-76
2023/05/16 20:20:57;;;;;;;10.38;4.97;;;;;;;;;;2517707;23;20037;-74
2023/05/16 20:22:19;;;;;;;19.83;7.82;;;;;;;;;;2520543;23;20018;-76
2023/05/16 20:23:40;;;;;;;17.38;6.30;;;;;;;;;;2521238;23;20011;-75
2023/05/16 20:25:05;;;;;;;20.42;7.28;;;;;;;;;;2519871;23;20011;-76
2023/05/16 20:26:26;;;;;;;15.43;5.80;;;;;;;;;;2519211;23;20006;-76
2023/05/16 20:27:47;;;;;;;16.52;6.00;;;;;;;;;;2519562;23;20014;-76
2023/05/16 20:29:08;;;;;;;17.88;7.25;;;;;;;;;;2518903;23;20026;-76
2023/05/16 20:30:31;;;;;;;19.75;6.80;;;;;;;;;;2518177;23;20073;-76
2023/05/16 20:31:51;;;;;;;16.10;6.18;;;;;;;;;;2517039;23;20014;-76
2023/05/16 20:33:12;;;;;;;18.55;6.88;;;;;;;;;;2518604;23;20018;-76
2023/05/16 20:34:33;;;;;;;23.70;7.63;;;;;;;;;;2518870;23;20014;-76
2023/05/16 20:35:54;;;;;;;12.70;6.18;;;;;;;;;;2519142;23;20389;-75
2023/05/16 20:37:15;;;;;;;19.67;7.15;;;;;;;;;;2518309;23;20035;-75
2023/05/16 20:38:37;;;;;;;18.27;7.38;;;;;;;;;;2505704;23;20038;-74
2023/05/16 20:39:58;;;;;;;23.42;7.18;;;;;;;;;;2519496;23;20014;-74
2023/05/16 20:41:19;;;;;;;14.75;6.22;;;;;;;;;;2516161;23;20077;-75
2023/05/16 20:42:40;;;;;;;22.07;7.47;;;;;;;;;;2519417;23;20014;-75
2023/05/16 20:44:01;;;;;;;15.73;7.05;;;;;;;;;;2519478;23;20343;-75
2023/05/16 20:45:25;;;;;;;17.85;7.68;;;;;;;;;;2518812;23;20461;-72
2023/05/16 20:46:46;;;;;;;22.27;7.72;;;;;;;;;;2516499;23;20496;-72
2023/05/16 20:48:07;;;;;;;13.68;6.07;;;;;;;;;;2519544;23;20449;-72
2023/05/16 20:49:28;;;;;;;17.63;6.25;;;;;;;;;;2518729;23;20025;-73
2023/05/16 20:50:49;;;;;;;15.23;6.05;;;;;;;;;;2520210;23;20042;-73
2023/05/16 20:52:10;;;;;;;12.43;5.65;;;;;;;;;;2507086;23;20075;-72
2023/05/16 20:53:31;;;;;;;10.77;5.50;;;;;;;;;;2516092;23;20013;-71
2023/05/16 20:54:52;;;;;;;17.38;6.75;;;;;;;;;;2519291;23;20469;-73
2023/05/16 20:56:12;;;;;;;13.65;5.80;;;;;;;;;;2520000;23;20015;-72
2023/05/16 20:57:34;;;;;;;7.75;5.18;;;;;;;;;;2518749;23;20011;-72
2023/05/16 20:58:56;;;;;;;9.48;5.13;;;;;;;;;;2524527;23;20006;-72
2023/05/16 21:00:17;;;;;;;15.35;6.20;;;;;;;;;;2518424;23;20013;-72
2023/05/16 21:01:38;;;;;;;8.75;5.20;;;;;;;;;;2528408;23;20184;-72
2023/05/16 21:02:58;;;;;;;13.35;5.57;;;;;;;;;;2533048;23;20033;-72
2023/05/16 21:04:20;;;;;;;15.30;5.53;;;;;;;;;;2531569;23;20010;-72
2023/05/16 21:05:41;;;;;;;27.38;8.65;;;;;;;;;;2526364;23;20017;-72
2023/05/16 21:07:02;;;;;;;35.30;9.40;;;;;;;;;;2528789;23;20519;-72
2023/05/16 21:08:23;;;;;;;26.20;8.75;;;;;;;;;;2514759;23;20015;-72
2023/05/16 21:09:44;;;;;;;22.83;8.02;;;;;;;;;;2523285;23;20018;-72
2023/05/16 21:11:05;;;;;;;25.42;8.85;;;;;;;;;;2528687;23;20009;-72
2023/05/16 21:12:25;;;;;;;22.98;7.93;;;;;;;;;;2528517;23;20443;-72
2023/05/16 21:13:47;;;;;;;14.10;5.88;;;;;;;;;;2532605;23;20452;-72
2023/05/16 21:15:08;;;;;;;28.48;9.48;;;;;;;;;;2529615;23;20385;-72
2023/05/16 21:16:30;;;;;;;23.67;8.40;;;;;;;;;;2533149;23;20424;-73
2023/05/16 21:17:50;;;;;;;18.75;7.07;;;;;;;;;;2516309;23;20014;-72
2023/05/16 21:19:11;;;;;;;22.15;8.55;;;;;;;;;;2524013;23;20014;-72
2023/05/16 21:20:32;;;;;;;40.75;10.70;;;;;;;;;;2530315;23;20009;-72
2023/05/16 21:21:53;;;;;;;27.80;8.40;;;;;;;;;;2531647;23;20464;-72
2023/05/16 21:23:14;;;;;;;26.63;9.00;;;;;;;;;;2529677;23;20010;-72
2023/05/16 21:24:36;;;;;;;19.10;6.57;;;;;;;;;;2529927;23;20014;-72
2023/05/16 21:25:57;;;;;;;20.45;8.73;;;;;;;;;;2530923;23;20010;-72
2023/05/16 21:27:18;;;;;;;15.27;7.28;;;;;;;;;;2518186;23;20033;-72
2023/05/16 21:28:39;;;;;;;16.40;6.60;;;;;;;;;;2526773;23;20040;-72
2023/05/16 21:30:00;;;;;;;28.52;9.52;;;;;;;;;;2515873;23;20014;-72
2023/05/16 21:31:23;;;;;;;17.50;7.53;;;;;;;;;;2520814;23;20018;-73
2023/05/16 21:32:44;;;;;;;20.27;7.80;;;;;;;;;;2507689;23;20025;-72
2023/05/16 21:34:08;;;;;;;12.77;6.55;;;;;;;;;;2515574;23;20433;-72
2023/05/16 21:35:29;;;;;;;14.85;6.47;;;;;;;;;;2521241;23;20011;-72
2023/05/16 21:36:50;;;;;;;18.42;8.45;;;;;;;;;;2520342;23;20014;-73
2023/05/16 21:38:11;;;;;;;29.58;9.88;;;;;;;;;;2517616;23;20360;-72
2023/05/16 21:39:32;;;;;;;24.60;9.18;;;;;;;;;;2516780;23;20116;-72
2023/05/16 21:40:53;;;;;;;16.08;6.68;;;;;;;;;;2519834;23;20527;-72
2023/05/16 21:42:14;;;;;;;17.23;6.65;;;;;;;;;;2517096;23;20014;-74
2023/05/16 21:43:35;;;;;;;22.30;7.93;;;;;;;;;;2517656;23;20393;-72
2023/05/16 21:44:56;;;;;;;19.75;7.78;;;;;;;;;;2517969;23;20011;-72
2023/05/16 21:46:17;;;;;;;15.02;7.57;;;;;;;;;;2517395;23;20014;-72
2023/05/16 21:47:38;;;;;;;18.80;8.27;;;;;;;;;;2506263;23;20385;-72
2023/05/16 21:48:59;;;;;;;18.35;8.15;;;;;;;;;;2512204;23;20015;-72
2023/05/16 21:50:20;;;;;;;29.92;9.15;;;;;;;;;;2525560;23;20333;-73
2023/05/16 21:51:41;;;;;;;19.75;7.93;;;;;;;;;;2531502;23;20018;-72
2023/05/16 21:53:03;;;;;;;22.80;8.90;;;;;;;;;;2529976;23;20014;-73
2023/05/16 21:54:24;;;;;;;18.95;7.43;;;;;;;;;;2530625;23;20025;-71
2023/05/16 21:55:45;;;;;;;14.13;7.10;;;;;;;;;;2530968;23;20014;-72
2023/05/16 21:57:06;;;;;;;22.77;8.30;;;;;;;;;;2518803;23;20015;-72
2023/05/16 21:58:29;;;;;;;23.17;8.70;;;;;;;;;;2525668;23;20018;-71
2023/05/16 21:59:50;;;;;;;15.00;7.15;;;;;;;;;;2531677;23;20022;-72
2023/05/16 22:01:11;;;;;;;24.48;8.18;;;;;;;;;;2530934;23;20017;-72
2023/05/16 22:02:32;;;;;;;18.60;7.20;;;;;;;;;;2531938;23;20006;-72
2023/05/16 22:03:54;;;;;;;32.42;10.10;;;;;;;;;;2526395;23;20369;-72
2023/05/16 22:05:18;;;;;;;;;;;;;;;;;;2527554;23;20013;-73
2023/05/16 22:06:38;;;;;;;;;;;;;;;;;;2530432;23;19908;-72
2023/05/16 22:07:59;;;;;;;16.98;7.32;;;;;;;;;;2528061;23;19920;-72
2023/05/16 22:09:20;;;;;;;21.30;8.32;;;;;;;;;;2517304;23;20531;-71
2023/05/16 22:10:41;;;;;;;22.45;8.45;;;;;;;;;;2516653;23;20077;-72
2023/05/16 22:12:02;;;;;;;16.70;7.97;;;;;;;;;;2518428;23;20011;-72
2023/05/16 22:13:26;;;;;;;11.67;6.53;;;;;;;;;;2525954;23;20013;-71
2023/05/16 22:14:48;;;;;;;20.30;8.23;;;;;;;;;;2528384;23;20385;-72
2023/05/16 22:16:08;;;;;;;16.08;8.50;;;;;;;;;;2532170;23;20395;-72
2023/05/16 22:17:30;;;;;;;19.80;8.25;;;;;;;;;;2517947;23;20093;-72
2023/05/16 22:18:51;;;;;;;23.03;8.23;;;;;;;;;;2525659;23;20439;-72
2023/05/16 22:20:11;;;;;;;13.40;6.68;;;;;;;;;;2521989;23;20369;-72
2023/05/16 22:21:32;;;;;;;15.45;6.15;;;;;;;;;;2521222;23;20371;-72
2023/05/16 22:22:53;;;;;;;19.67;7.40;;;;;;;;;;2506496;23;20034;-72
2023/05/16 22:24:14;;;;;;;19.67;9.25;;;;;;;;;;2513064;23;20369;-72
2023/05/16 22:25:35;;;;;;;11.35;6.50;;;;;;;;;;2522783;23;20006;-72
2023/05/16 22:26:56;;;;;;;17.15;7.30;;;;;;;;;;2520518;23;20361;-72
2023/05/16 22:28:17;;;;;;;20.95;7.82;;;;;;;;;;2519839;23;20014;-72
2023/05/16 22:29:38;;;;;;;11.95;6.55;;;;;;;;;;2520026;23;20355;-73
2023/05/16 22:30:59;;;;;;;16.42;7.38;;;;;;;;;;2519097;23;20480;-72
2023/05/16 22:32:21;;;;;;;12.80;6.78;;;;;;;;;;2508009;23;20015;-72
2023/05/16 22:33:41;;;;;;;15.73;6.57;;;;;;;;;;2515806;23;20011;-72
2023/05/16 22:35:05;;;;;;;12.60;7.05;;;;;;;;;;2520660;23;20017;-72
2023/05/16 22:36:26;;;;;;;18.25;7.05;;;;;;;;;;2510944;23;20442;-72
2023/05/16 22:37:47;;;;;;;14.60;6.57;;;;;;;;;;2519363;23;20357;-72
2023/05/16 22:39:08;;;;;;;12.57;7.97;;;;;;;;;;2519032;23;20345;-72
2023/05/16 22:40:29;;;;;;;17.02;7.05;;;;;;;;;;2521389;23;20364;-72
2023/05/16 22:41:50;;;;;;;10.05;6.95;;;;;;;;;;2520235;23;20385;-72
2023/05/16 22:43:11;;;;;;;16.10;7.10;;;;;;;;;;2520467;23;20013;-72
2023/05/16 22:44:32;;;;;;;16.10;7.35;;;;;;;;;;2519941;23;20400;-72
2023/05/16 22:45:53;;;;;;;14.93;7.63;;;;;;;;;;2507870;23;20007;-72
2023/05/16 22:47:14;;;;;;;14.75;8.00;;;;;;;;;;2516936;23;20010;-72
2023/05/16 22:48:34;;;;;;;18.05;7.50;;;;;;;;;;2521101;23;20066;-72
2023/05/16 22:49:55;;;;;;;16.42;7.13;;;;;;;;;;2519187;23;20453;-72
2023/05/16 22:51:16;;;;;;;24.23;9.55;;;;;;;;;;2519826;23;20344;-72
2023/05/16 22:52:40;;;;;;;15.07;7.57;;;;;;;;;;2518744;23;20013;-72
2023/05/16 22:54:01;;;;;;;18.42;8.82;;;;;;;;;;2506003;23;20480;-72
2023/05/16 22:55:22;;;;;;;16.38;8.75;;;;;;;;;;2514076;23;20014;-72
2023/05/16 22:56:43;;;;;;;25.63;9.55;;;;;;;;;;2518950;23;20010;-73
2023/05/16 22:58:04;;;;;;;14.30;8.35;;;;;;;;;;2518810;23;20527;-73
2023/05/16 22:59:24;;;;;;;24.73;10.27;;;;;;;;;;2504903;23;20015;-74
2023/05/16 23:00:45;;;;;;;14.23;7.72;;;;;;;;;;2513465;23;20010;-73
2023/05/16 23:02:06;;;;;;;16.45;8.50;;;;;;;;;;2520484;23;20010;-73
2023/05/16 23:03:27;;;;;;;17.77;8.68;;;;;;;;;;2521325;23;20345;-73
2023/05/16 23:04:48;;;;;;;11.48;8.23;;;;;;;;;;2520537;23;20006;-73
2023/05/16 23:06:09;;;;;;;23.48;8.40;;;;;;;;;;2519927;23;20011;-72
2023/05/16 23:07:31;;;;;;;15.63;7.57;;;;;;;;;;2521099;23;20463;-73
2023/05/16 23:08:52;;;;;;;18.15;9.55;;;;;;;;;;2508748;23;20011;-73
2023/05/16 23:10:13;;;;;;;18.23;8.93;;;;;;;;;;2530651;23;20014;-72
2023/05/16 23:11:34;;;;;;;14.02;8.45;;;;;;;;;;2532036;23;20010;-73
2023/05/16 23:12:55;;;;;;;15.25;8.07;;;;;;;;;;2533734;23;20006;-73
2023/05/16 23:14:21;;;;;;;17.23;9.40;;;;;;;;;;2533639;23;20006;-73
2023/05/16 23:15:42;;;;;;;13.10;8.25;;;;;;;;;;2532257;23;20041;-72
2023/05/16 23:17:03;;;;;;;18.60;8.18;;;;;;;;;;2532470;23;20329;-73
2023/05/16 23:18:23;;;;;;;14.77;7.45;;;;;;;;;;2530475;23;20006;-73
2023/05/16 23:19:44;;;;;;;17.58;8.27;;;;;;;;;;2521869;23;20046;-72
2023/05/16 23:21:05;;;;;;;21.65;8.05;;;;;;;;;;2519634;23;20352;-72
2023/05/16 23:22:26;;;;;;;14.18;8.15;;;;;;;;;;2520198;23;20011;-72
2023/05/16 23:23:47;;;;;;;32.50;9.55;;;;;;;;;;2519320;23;20062;-73
2023/05/16 23:25:08;;;;;;;17.85;8.52;;;;;;;;;;2520560;23;20445;-72
2023/05/16 23:26:30;;;;;;;16.80;8.82;;;;;;;;;;2521309;23;20010;-73
2023/05/16 23:27:51;;;;;;;18.60;8.90;;;;;;;;;;2520461;23;20444;-73
2023/05/16 23:29:12;;;;;;;20.45;9.02;;;;;;;;;;2520427;23;20007;-73
2023/05/16 23:30:33;;;;;;;19.77;8.88;;;;;;;;;;2522659;23;20022;-73
2023/05/16 23:31:54;;;;;;;18.40;7.97;;;;;;;;;;2520782;23;20069;-73
2023/05/16 23:33:15;;;;;;;14.80;8.52;;;;;;;;;;2519933;23;20444;-73
2023/05/16 23:34:35;;;;;;;17.27;8.18;;;;;;;;;;2520264;23;20018;-73
2023/05/16 23:35:56;;;;;;;14.32;8.15;;;;;;;;;;2518769;23;20015;-72
2023/05/16 23:37:17;;;;;;;22.50;9.60;;;;;;;;;;2518673;23;20014;-72
2023/05/16 23:38:38;;;;;;;18.20;9.73;;;;;;;;;;2519225;23;20352;-72
2023/05/16 23:39:59;;;;;;;19.23;8.70;;;;;;;;;;2527616;23;20029;-73